sensor_id;sensor_type;location;lat;lon;timestamp;P1;durP1;ratioP1;P2;durP2;ratioP2
25780;SDS011;13626;48.128;11.628;2023-05-07T00:02:17;10.40;;;6.57;;
25780;SDS011;13626;48.128;11.628;2023-05-07T00:04:45;8.07;;;6.80;;
25780;SDS011;13626;48.128;11.628;2023-05-07T00:07:12;8.30;;;6.55;;
25780;SDS011;13626;48.128;11.628;2023-05-07T00:09:39;9.38;;;6.97;;
25780;SDS011;13626;48.128;11.628;2023-05-07T00:12:07;9.25;;;6.55;;
25780;SDS011;13626;48.128;11.628;2023-05-07T00:14:34;9.55;;;6.50;;
25780;SDS011;13626;48.128;11.628;2023-05-07T00:17:01;11.80;;;6.50;;
25780;SDS011;13626;48.128;11.628;2023-05-07T00:19:28;7.63;;;6.47;;
25780;SDS011;13626;48.128;11.628;2023-05-07T00:21:55;8.20;;;6.45;;
25780;SDS011;13626;48.128;11.628;2023-05-07T00:24:23;7.78;;;5.97;;
25780;SDS011;13626;48.128;11.628;2023-05-07T00:26:50;10.23;;;6.72;;
25780;SDS011;13626;48.128;11.628;2023-05-07T00:29:18;7.47;;;6.53;;
25780;SDS011;13626;48.128;11.628;2023-05-07T00:31:46;9.05;;;5.65;;
25780;SDS011;13626;48.128;11.628;2023-05-07T00:34:13;9.15;;;6.50;;
25780;SDS011;13626;48.128;11.628;2023-05-07T00:36:40;7.75;;;6.70;;
25780;SDS011;13626;48.128;11.628;2023-05-07T00:39:07;10.23;;;6.78;;
25780;SDS011;13626;48.128;11.628;2023-05-07T00:41:34;9.82;;;7.13;;
25780;SDS011;13626;48.128;11.628;2023-05-07T00:44:02;8.25;;;6.80;;
25780;SDS011;13626;48.128;11.628;2023-05-07T00:46:29;9.85;;;6.68;;
25780;SDS011;13626;48.128;11.628;2023-05-07T00:48:57;9.27;;;6.40;;
25780;SDS011;13626;48.128;11.628;2023-05-07T00:51:25;10.90;;;6.95;;
25780;SDS011;13626;48.128;11.628;2023-05-07T00:53:53;9.35;;;6.88;;
25780;SDS011;13626;48.128;11.628;2023-05-07T00:56:21;11.45;;;7.53;;
25780;SDS011;13626;48.128;11.628;2023-05-07T00:58:48;8.82;;;6.53;;
25780;SDS011;13626;48.128;11.628;2023-05-07T01:01:16;9.13;;;6.68;;
25780;SDS011;13626;48.128;11.628;2023-05-07T01:03:43;8.27;;;6.30;;
25780;SDS011;13626;48.128;11.628;2023-05-07T01:06:11;8.93;;;7.00;;
25780;SDS011;13626;48.128;11.628;2023-05-07T01:08:39;7.32;;;6.13;;
25780;SDS011;13626;48.128;11.628;2023-05-07T01:11:08;7.88;;;6.35;;
25780;SDS011;13626;48.128;11.628;2023-05-07T01:13:35;8.30;;;6.78;;
25780;SDS011;13626;48.128;11.628;2023-05-07T01:16:03;11.40;;;6.20;;
25780;SDS011;13626;48.128;11.628;2023-05-07T01:18:31;7.70;;;6.43;;
25780;SDS011;13626;48.128;11.628;2023-05-07T01:20:59;9.13;;;6.70;;
25780;SDS011;13626;48.128;11.628;2023-05-07T01:23:27;8.88;;;6.55;;
25780;SDS011;13626;48.128;11.628;2023-05-07T01:25:55;9.43;;;6.50;;
25780;SDS011;13626;48.128;11.628;2023-05-07T01:28:22;9.52;;;6.95;;
25780;SDS011;13626;48.128;11.628;2023-05-07T01:30:52;11.35;;;6.55;;
25780;SDS011;13626;48.128;11.628;2023-05-07T01:33:20;9.32;;;7.45;;
25780;SDS011;13626;48.128;11.628;2023-05-07T01:35:49;10.32;;;6.95;;
25780;SDS011;13626;48.128;11.628;2023-05-07T01:38:17;8.23;;;6.85;;
25780;SDS011;13626;48.128;11.628;2023-05-07T01:40:45;10.35;;;6.60;;
25780;SDS011;13626;48.128;11.628;2023-05-07T01:43:12;9.88;;;6.78;;
25780;SDS011;13626;48.128;11.628;2023-05-07T01:45:39;8.70;;;7.03;;
25780;SDS011;13626;48.128;11.628;2023-05-07T01:48:07;8.38;;;6.22;;
25780;SDS011;13626;48.128;11.628;2023-05-07T01:50:35;10.68;;;6.40;;
25780;SDS011;13626;48.128;11.628;2023-05-07T01:53:03;6.88;;;6.18;;
25780;SDS011;13626;48.128;11.628;2023-05-07T01:55:30;7.68;;;6.63;;
25780;SDS011;13626;48.128;11.628;2023-05-07T01:57:57;9.23;;;6.65;;
25780;SDS011;13626;48.128;11.628;2023-05-07T02:00:24;8.63;;;6.68;;
25780;SDS011;13626;48.128;11.628;2023-05-07T02:02:51;7.72;;;6.57;;
25780;SDS011;13626;48.128;11.628;2023-05-07T02:05:19;12.68;;;7.15;;
25780;SDS011;13626;48.128;11.628;2023-05-07T02:07:46;10.18;;;6.68;;
25780;SDS011;13626;48.128;11.628;2023-05-07T02:10:13;8.82;;;6.40;;
25780;SDS011;13626;48.128;11.628;2023-05-07T02:12:40;8.55;;;6.20;;
25780;SDS011;13626;48.128;11.628;2023-05-07T02:15:09;6.93;;;5.85;;
25780;SDS011;13626;48.128;11.628;2023-05-07T02:17:39;7.75;;;6.05;;
25780;SDS011;13626;48.128;11.628;2023-05-07T02:20:06;7.43;;;6.43;;
25780;SDS011;13626;48.128;11.628;2023-05-07T02:22:39;8.65;;;6.07;;
25780;SDS011;13626;48.128;11.628;2023-05-07T02:25:06;6.97;;;6.10;;
25780;SDS011;13626;48.128;11.628;2023-05-07T02:27:33;8.85;;;6.03;;
25780;SDS011;13626;48.128;11.628;2023-05-07T02:30:00;7.70;;;5.65;;
25780;SDS011;13626;48.128;11.628;2023-05-07T02:32:28;7.60;;;6.03;;
25780;SDS011;13626;48.128;11.628;2023-05-07T02:34:55;7.38;;;6.25;;
25780;SDS011;13626;48.128;11.628;2023-05-07T02:37:22;7.47;;;6.60;;
25780;SDS011;13626;48.128;11.628;2023-05-07T02:39:49;7.03;;;5.85;;
25780;SDS011;13626;48.128;11.628;2023-05-07T02:42:16;8.73;;;5.88;;
25780;SDS011;13626;48.128;11.628;2023-05-07T02:44:43;7.15;;;5.63;;
25780;SDS011;13626;48.128;11.628;2023-05-07T02:47:10;9.32;;;6.70;;
25780;SDS011;13626;48.128;11.628;2023-05-07T02:49:39;10.40;;;5.65;;
25780;SDS011;13626;48.128;11.628;2023-05-07T02:52:06;7.22;;;5.82;;
25780;SDS011;13626;48.128;11.628;2023-05-07T02:54:33;8.48;;;5.90;;
25780;SDS011;13626;48.128;11.628;2023-05-07T02:57:00;8.13;;;6.65;;
25780;SDS011;13626;48.128;11.628;2023-05-07T02:59:28;7.72;;;5.90;;
25780;SDS011;13626;48.128;11.628;2023-05-07T03:01:55;7.95;;;5.78;;
25780;SDS011;13626;48.128;11.628;2023-05-07T03:04:22;7.10;;;5.60;;
25780;SDS011;13626;48.128;11.628;2023-05-07T03:06:49;7.78;;;5.65;;
25780;SDS011;13626;48.128;11.628;2023-05-07T03:09:17;6.53;;;5.38;;
25780;SDS011;13626;48.128;11.628;2023-05-07T03:11:44;7.25;;;5.93;;
25780;SDS011;13626;48.128;11.628;2023-05-07T03:14:11;9.57;;;6.20;;
25780;SDS011;13626;48.128;11.628;2023-05-07T03:16:39;6.80;;;6.13;;
25780;SDS011;13626;48.128;11.628;2023-05-07T03:19:06;8.40;;;5.95;;
25780;SDS011;13626;48.128;11.628;2023-05-07T03:21:34;9.63;;;6.05;;
25780;SDS011;13626;48.128;11.628;2023-05-07T03:24:01;6.70;;;5.40;;
25780;SDS011;13626;48.128;11.628;2023-05-07T03:26:28;6.47;;;5.50;;
25780;SDS011;13626;48.128;11.628;2023-05-07T03:28:55;6.57;;;5.72;;
25780;SDS011;13626;48.128;11.628;2023-05-07T03:31:22;6.90;;;5.55;;
25780;SDS011;13626;48.128;11.628;2023-05-07T03:33:53;7.35;;;5.60;;
25780;SDS011;13626;48.128;11.628;2023-05-07T03:36:21;7.22;;;6.00;;
25780;SDS011;13626;48.128;11.628;2023-05-07T03:38:48;7.28;;;5.90;;
25780;SDS011;13626;48.128;11.628;2023-05-07T03:41:16;6.40;;;5.72;;
25780;SDS011;13626;48.128;11.628;2023-05-07T03:43:43;6.57;;;5.82;;
25780;SDS011;13626;48.128;11.628;2023-05-07T03:46:11;5.85;;;5.25;;
25780;SDS011;13626;48.128;11.628;2023-05-07T03:48:38;7.68;;;5.60;;
25780;SDS011;13626;48.128;11.628;2023-05-07T03:51:05;6.05;;;5.22;;
25780;SDS011;13626;48.128;11.628;2023-05-07T03:53:32;5.93;;;5.32;;
25780;SDS011;13626;48.128;11.628;2023-05-07T03:55:59;6.18;;;5.20;;
25780;SDS011;13626;48.128;11.628;2023-05-07T03:58:27;5.43;;;4.93;;
25780;SDS011;13626;48.128;11.628;2023-05-07T04:00:54;7.57;;;5.30;;
25780;SDS011;13626;48.128;11.628;2023-05-07T04:03:21;6.93;;;5.05;;
25780;SDS011;13626;48.128;11.628;2023-05-07T04:05:48;5.35;;;4.50;;
25780;SDS011;13626;48.128;11.628;2023-05-07T04:08:15;6.10;;;5.00;;
25780;SDS011;13626;48.128;11.628;2023-05-07T04:10:43;8.85;;;5.28;;
25780;SDS011;13626;48.128;11.628;2023-05-07T04:13:10;6.50;;;5.15;;
25780;SDS011;13626;48.128;11.628;2023-05-07T04:15:37;6.45;;;5.18;;
25780;SDS011;13626;48.128;11.628;2023-05-07T04:18:04;6.03;;;4.82;;
25780;SDS011;13626;48.128;11.628;2023-05-07T04:20:33;5.88;;;4.70;;
25780;SDS011;13626;48.128;11.628;2023-05-07T04:23:02;6.45;;;4.82;;
25780;SDS011;13626;48.128;11.628;2023-05-07T04:25:29;5.55;;;5.00;;
25780;SDS011;13626;48.128;11.628;2023-05-07T04:27:57;5.40;;;4.85;;
25780;SDS011;13626;48.128;11.628;2023-05-07T04:30:24;6.13;;;4.57;;
25780;SDS011;13626;48.128;11.628;2023-05-07T04:32:52;4.72;;;4.25;;
25780;SDS011;13626;48.128;11.628;2023-05-07T04:35:19;5.65;;;4.40;;
25780;SDS011;13626;48.128;11.628;2023-05-07T04:37:46;4.85;;;3.88;;
25780;SDS011;13626;48.128;11.628;2023-05-07T04:40:13;6.22;;;4.90;;
25780;SDS011;13626;48.128;11.628;2023-05-07T04:42:40;4.63;;;3.90;;
25780;SDS011;13626;48.128;11.628;2023-05-07T04:45:08;5.50;;;4.43;;
25780;SDS011;13626;48.128;11.628;2023-05-07T04:47:36;6.32;;;3.97;;
25780;SDS011;13626;48.128;11.628;2023-05-07T04:50:03;4.68;;;3.83;;
25780;SDS011;13626;48.128;11.628;2023-05-07T04:52:31;4.57;;;4.18;;
25780;SDS011;13626;48.128;11.628;2023-05-07T04:55:01;4.95;;;4.03;;
25780;SDS011;13626;48.128;11.628;2023-05-07T04:57:28;5.07;;;4.32;;
25780;SDS011;13626;48.128;11.628;2023-05-07T04:59:55;5.00;;;3.92;;
25780;SDS011;13626;48.128;11.628;2023-05-07T05:02:22;4.32;;;3.92;;
25780;SDS011;13626;48.128;11.628;2023-05-07T05:04:49;4.95;;;3.95;;
25780;SDS011;13626;48.128;11.628;2023-05-07T05:07:16;5.82;;;3.90;;
25780;SDS011;13626;48.128;11.628;2023-05-07T05:09:44;6.00;;;4.22;;
25780;SDS011;13626;48.128;11.628;2023-05-07T05:12:11;4.35;;;3.92;;
25780;SDS011;13626;48.128;11.628;2023-05-07T05:14:39;5.93;;;3.85;;
25780;SDS011;13626;48.128;11.628;2023-05-07T05:17:06;4.47;;;4.07;;
25780;SDS011;13626;48.128;11.628;2023-05-07T05:19:33;6.07;;;3.90;;
25780;SDS011;13626;48.128;11.628;2023-05-07T05:22:00;4.15;;;3.55;;
25780;SDS011;13626;48.128;11.628;2023-05-07T05:24:30;4.00;;;3.65;;
25780;SDS011;13626;48.128;11.628;2023-05-07T05:26:57;5.35;;;4.25;;
25780;SDS011;13626;48.128;11.628;2023-05-07T05:29:27;4.00;;;3.65;;
25780;SDS011;13626;48.128;11.628;2023-05-07T05:31:54;3.90;;;3.50;;
25780;SDS011;13626;48.128;11.628;2023-05-07T05:34:22;6.20;;;4.20;;
25780;SDS011;13626;48.128;11.628;2023-05-07T05:36:49;6.03;;;4.80;;
25780;SDS011;13626;48.128;11.628;2023-05-07T05:39:16;5.32;;;3.97;;
25780;SDS011;13626;48.128;11.628;2023-05-07T05:41:43;4.32;;;3.60;;
25780;SDS011;13626;48.128;11.628;2023-05-07T05:44:11;4.05;;;3.63;;
25780;SDS011;13626;48.128;11.628;2023-05-07T05:46:38;4.47;;;3.80;;
25780;SDS011;13626;48.128;11.628;2023-05-07T05:49:05;4.43;;;4.03;;
25780;SDS011;13626;48.128;11.628;2023-05-07T05:51:33;6.53;;;4.20;;
25780;SDS011;13626;48.128;11.628;2023-05-07T05:54:00;8.45;;;4.05;;
25780;SDS011;13626;48.128;11.628;2023-05-07T05:56:27;4.75;;;4.25;;
25780;SDS011;13626;48.128;11.628;2023-05-07T05:58:54;4.78;;;4.35;;
25780;SDS011;13626;48.128;11.628;2023-05-07T06:01:22;6.85;;;4.50;;
25780;SDS011;13626;48.128;11.628;2023-05-07T06:03:49;6.32;;;4.78;;
25780;SDS011;13626;48.128;11.628;2023-05-07T06:06:16;7.60;;;4.60;;
25780;SDS011;13626;48.128;11.628;2023-05-07T06:08:43;4.93;;;3.78;;
25780;SDS011;13626;48.128;11.628;2023-05-07T06:11:10;6.13;;;4.38;;
25780;SDS011;13626;48.128;11.628;2023-05-07T06:13:37;5.75;;;4.60;;
25780;SDS011;13626;48.128;11.628;2023-05-07T06:16:04;7.57;;;4.18;;
25780;SDS011;13626;48.128;11.628;2023-05-07T06:18:32;4.68;;;4.10;;
25780;SDS011;13626;48.128;11.628;2023-05-07T06:20:59;6.10;;;3.90;;
25780;SDS011;13626;48.128;11.628;2023-05-07T06:23:26;6.97;;;4.00;;
25780;SDS011;13626;48.128;11.628;2023-05-07T06:25:53;5.20;;;3.70;;
25780;SDS011;13626;48.128;11.628;2023-05-07T06:28:21;4.93;;;3.47;;
25780;SDS011;13626;48.128;11.628;2023-05-07T06:30:48;5.13;;;4.00;;
25780;SDS011;13626;48.128;11.628;2023-05-07T06:33:16;4.30;;;3.33;;
25780;SDS011;13626;48.128;11.628;2023-05-07T06:35:43;5.65;;;3.53;;
25780;SDS011;13626;48.128;11.628;2023-05-07T06:38:10;5.70;;;3.50;;
25780;SDS011;13626;48.128;11.628;2023-05-07T06:40:38;5.28;;;3.60;;
25780;SDS011;13626;48.128;11.628;2023-05-07T06:43:05;3.95;;;3.00;;
25780;SDS011;13626;48.128;11.628;2023-05-07T06:45:32;5.63;;;3.03;;
25780;SDS011;13626;48.128;11.628;2023-05-07T06:47:59;4.15;;;2.72;;
25780;SDS011;13626;48.128;11.628;2023-05-07T06:50:27;3.60;;;2.95;;
25780;SDS011;13626;48.128;11.628;2023-05-07T06:52:54;4.32;;;2.50;;
25780;SDS011;13626;48.128;11.628;2023-05-07T06:55:21;3.58;;;2.72;;
25780;SDS011;13626;48.128;11.628;2023-05-07T06:57:49;2.50;;;2.30;;
25780;SDS011;13626;48.128;11.628;2023-05-07T07:00:16;3.42;;;2.42;;
25780;SDS011;13626;48.128;11.628;2023-05-07T07:02:43;2.67;;;2.47;;
25780;SDS011;13626;48.128;11.628;2023-05-07T07:05:10;2.55;;;2.30;;
25780;SDS011;13626;48.128;11.628;2023-05-07T07:07:38;2.65;;;2.30;;
25780;SDS011;13626;48.128;11.628;2023-05-07T07:10:05;3.38;;;2.42;;
25780;SDS011;13626;48.128;11.628;2023-05-07T07:12:32;3.20;;;2.60;;
25780;SDS011;13626;48.128;11.628;2023-05-07T07:14:59;2.63;;;2.42;;
25780;SDS011;13626;48.128;11.628;2023-05-07T07:17:27;4.05;;;2.35;;
25780;SDS011;13626;48.128;11.628;2023-05-07T07:19:54;2.63;;;2.38;;
25780;SDS011;13626;48.128;11.628;2023-05-07T07:22:21;2.70;;;2.20;;
25780;SDS011;13626;48.128;11.628;2023-05-07T07:24:49;3.25;;;2.30;;
25780;SDS011;13626;48.128;11.628;2023-05-07T07:27:17;3.65;;;2.22;;
25780;SDS011;13626;48.128;11.628;2023-05-07T07:29:44;3.83;;;2.10;;
25780;SDS011;13626;48.128;11.628;2023-05-07T07:32:11;3.22;;;2.10;;
25780;SDS011;13626;48.128;11.628;2023-05-07T07:34:38;3.85;;;2.00;;
25780;SDS011;13626;48.128;11.628;2023-05-07T07:37:05;2.58;;;1.80;;
25780;SDS011;13626;48.128;11.628;2023-05-07T07:39:33;2.60;;;2.40;;
25780;SDS011;13626;48.128;11.628;2023-05-07T07:42:00;3.38;;;2.35;;
25780;SDS011;13626;48.128;11.628;2023-05-07T07:44:27;3.08;;;2.00;;
25780;SDS011;13626;48.128;11.628;2023-05-07T07:46:54;2.45;;;2.20;;
25780;SDS011;13626;48.128;11.628;2023-05-07T07:49:22;2.53;;;2.20;;
25780;SDS011;13626;48.128;11.628;2023-05-07T07:51:49;2.30;;;2.10;;
25780;SDS011;13626;48.128;11.628;2023-05-07T07:54:17;8.70;;;2.13;;
25780;SDS011;13626;48.128;11.628;2023-05-07T07:56:44;2.97;;;2.50;;
25780;SDS011;13626;48.128;11.628;2023-05-07T07:59:11;4.43;;;2.65;;
25780;SDS011;13626;48.128;11.628;2023-05-07T08:01:40;2.22;;;2.03;;
25780;SDS011;13626;48.128;11.628;2023-05-07T08:04:07;4.45;;;2.80;;
25780;SDS011;13626;48.128;11.628;2023-05-07T08:06:35;2.40;;;2.20;;
25780;SDS011;13626;48.128;11.628;2023-05-07T08:09:02;2.20;;;2.00;;
25780;SDS011;13626;48.128;11.628;2023-05-07T08:11:29;4.45;;;2.08;;
25780;SDS011;13626;48.128;11.628;2023-05-07T08:13:56;2.22;;;2.03;;
25780;SDS011;13626;48.128;11.628;2023-05-07T08:16:23;4.45;;;2.10;;
25780;SDS011;13626;48.128;11.628;2023-05-07T08:18:51;2.05;;;1.85;;
25780;SDS011;13626;48.128;11.628;2023-05-07T08:21:18;2.60;;;1.95;;
25780;SDS011;13626;48.128;11.628;2023-05-07T08:23:46;2.67;;;2.45;;
25780;SDS011;13626;48.128;11.628;2023-05-07T08:26:13;3.08;;;2.20;;
25780;SDS011;13626;48.128;11.628;2023-05-07T08:28:40;5.57;;;2.25;;
25780;SDS011;13626;48.128;11.628;2023-05-07T08:31:07;4.55;;;1.98;;
25780;SDS011;13626;48.128;11.628;2023-05-07T08:33:35;2.28;;;1.73;;
25780;SDS011;13626;48.128;11.628;2023-05-07T08:36:02;1.90;;;1.75;;
25780;SDS011;13626;48.128;11.628;2023-05-07T08:38:29;2.10;;;1.90;;
25780;SDS011;13626;48.128;11.628;2023-05-07T08:40:56;3.60;;;2.20;;
25780;SDS011;13626;48.128;11.628;2023-05-07T08:43:25;3.05;;;2.20;;
25780;SDS011;13626;48.128;11.628;2023-05-07T08:45:54;2.13;;;1.70;;
25780;SDS011;13626;48.128;11.628;2023-05-07T08:48:22;4.18;;;2.15;;
25780;SDS011;13626;48.128;11.628;2023-05-07T08:50:52;1.98;;;1.88;;
25780;SDS011;13626;48.128;11.628;2023-05-07T08:53:19;2.85;;;2.38;;
25780;SDS011;13626;48.128;11.628;2023-05-07T08:55:47;2.10;;;1.90;;
25780;SDS011;13626;48.128;11.628;2023-05-07T08:58:14;3.78;;;2.20;;
25780;SDS011;13626;48.128;11.628;2023-05-07T09:00:41;3.13;;;2.08;;
25780;SDS011;13626;48.128;11.628;2023-05-07T09:03:09;3.28;;;2.20;;
25780;SDS011;13626;48.128;11.628;2023-05-07T09:05:38;2.85;;;2.17;;
25780;SDS011;13626;48.128;11.628;2023-05-07T09:08:06;2.40;;;2.20;;
25780;SDS011;13626;48.128;11.628;2023-05-07T09:10:34;3.75;;;2.88;;
25780;SDS011;13626;48.128;11.628;2023-05-07T09:13:02;3.90;;;2.75;;
25780;SDS011;13626;48.128;11.628;2023-05-07T09:15:30;6.82;;;2.50;;
25780;SDS011;13626;48.128;11.628;2023-05-07T09:18:00;3.13;;;2.83;;
25780;SDS011;13626;48.128;11.628;2023-05-07T09:20:29;4.68;;;2.72;;
25780;SDS011;13626;48.128;11.628;2023-05-07T09:22:56;2.85;;;2.35;;
25780;SDS011;13626;48.128;11.628;2023-05-07T09:25:27;4.97;;;2.60;;
25780;SDS011;13626;48.128;11.628;2023-05-07T09:27:54;4.70;;;2.50;;
25780;SDS011;13626;48.128;11.628;2023-05-07T09:30:22;4.07;;;2.53;;
25780;SDS011;13626;48.128;11.628;2023-05-07T09:32:49;2.92;;;2.47;;
25780;SDS011;13626;48.128;11.628;2023-05-07T09:35:16;2.80;;;2.10;;
25780;SDS011;13626;48.128;11.628;2023-05-07T09:37:44;2.75;;;2.30;;
25780;SDS011;13626;48.128;11.628;2023-05-07T09:40:21;2.60;;;2.30;;
25780;SDS011;13626;48.128;11.628;2023-05-07T09:42:49;3.55;;;2.28;;
25780;SDS011;13626;48.128;11.628;2023-05-07T09:45:21;6.15;;;3.75;;
25780;SDS011;13626;48.128;11.628;2023-05-07T09:47:48;3.17;;;2.45;;
25780;SDS011;13626;48.128;11.628;2023-05-07T09:50:16;3.95;;;2.10;;
25780;SDS011;13626;48.128;11.628;2023-05-07T09:52:45;3.33;;;2.90;;
25780;SDS011;13626;48.128;11.628;2023-05-07T09:55:12;4.03;;;2.35;;
25780;SDS011;13626;48.128;11.628;2023-05-07T09:57:40;2.80;;;2.33;;
25780;SDS011;13626;48.128;11.628;2023-05-07T10:00:08;4.80;;;2.33;;
25780;SDS011;13626;48.128;11.628;2023-05-07T10:02:37;2.20;;;2.00;;
25780;SDS011;13626;48.128;11.628;2023-05-07T10:05:12;2.28;;;2.08;;
25780;SDS011;13626;48.128;11.628;2023-05-07T10:07:41;3.53;;;2.40;;
25780;SDS011;13626;48.128;11.628;2023-05-07T10:10:08;2.20;;;1.85;;
25780;SDS011;13626;48.128;11.628;2023-05-07T10:12:35;3.20;;;2.10;;
25780;SDS011;13626;48.128;11.628;2023-05-07T10:15:06;2.55;;;2.13;;
25780;SDS011;13626;48.128;11.628;2023-05-07T10:17:37;4.25;;;2.30;;
25780;SDS011;13626;48.128;11.628;2023-05-07T10:20:05;3.45;;;2.03;;
25780;SDS011;13626;48.128;11.628;2023-05-07T10:22:43;2.80;;;1.88;;
25780;SDS011;13626;48.128;11.628;2023-05-07T10:25:16;2.20;;;2.00;;
25780;SDS011;13626;48.128;11.628;2023-05-07T10:27:45;3.88;;;2.20;;
25780;SDS011;13626;48.128;11.628;2023-05-07T10:33:01;3.42;;;1.85;;
25780;SDS011;13626;48.128;11.628;2023-05-07T10:35:36;2.15;;;1.95;;
25780;SDS011;13626;48.128;11.628;2023-05-07T10:38:04;3.60;;;2.10;;
25780;SDS011;13626;48.128;11.628;2023-05-07T10:40:31;2.63;;;1.73;;
25780;SDS011;13626;48.128;11.628;2023-05-07T10:43:00;3.95;;;1.80;;
25780;SDS011;13626;48.128;11.628;2023-05-07T10:45:28;1.60;;;1.50;;
25780;SDS011;13626;48.128;11.628;2023-05-07T10:51:17;2.65;;;2.00;;
25780;SDS011;13626;48.128;11.628;2023-05-07T10:53:41;3.40;;;2.20;;
25780;SDS011;13626;48.128;11.628;2023-05-07T10:58:45;2.33;;;2.10;;
25780;SDS011;13626;48.128;11.628;2023-05-07T11:01:12;3.03;;;2.42;;
25780;SDS011;13626;48.128;11.628;2023-05-07T11:06:27;4.75;;;2.78;;
25780;SDS011;13626;48.128;11.628;2023-05-07T11:14:08;4.00;;;3.17;;
25780;SDS011;13626;48.128;11.628;2023-05-07T11:16:35;4.68;;;2.92;;
25780;SDS011;13626;48.128;11.628;2023-05-07T11:19:03;5.82;;;3.05;;
25780;SDS011;13626;48.128;11.628;2023-05-07T11:21:31;5.72;;;2.78;;
25780;SDS011;13626;48.128;11.628;2023-05-07T11:23:59;4.22;;;3.40;;
25780;SDS011;13626;48.128;11.628;2023-05-07T11:26:27;3.40;;;3.10;;
25780;SDS011;13626;48.128;11.628;2023-05-07T11:28:54;4.85;;;2.95;;
25780;SDS011;13626;48.128;11.628;2023-05-07T11:31:23;6.40;;;3.80;;
25780;SDS011;13626;48.128;11.628;2023-05-07T11:33:52;3.45;;;3.15;;
25780;SDS011;13626;48.128;11.628;2023-05-07T11:36:20;4.50;;;3.22;;
25780;SDS011;13626;48.128;11.628;2023-05-07T11:38:47;4.15;;;3.42;;
25780;SDS011;13626;48.128;11.628;2023-05-07T11:41:15;6.95;;;4.07;;
25780;SDS011;13626;48.128;11.628;2023-05-07T11:43:55;4.95;;;3.65;;
25780;SDS011;13626;48.128;11.628;2023-05-07T11:46:22;3.60;;;3.30;;
25780;SDS011;13626;48.128;11.628;2023-05-07T11:48:50;4.55;;;3.60;;
25780;SDS011;13626;48.128;11.628;2023-05-07T11:51:21;5.13;;;3.63;;
25780;SDS011;13626;48.128;11.628;2023-05-07T11:53:48;3.65;;;2.88;;
25780;SDS011;13626;48.128;11.628;2023-05-07T11:56:16;6.32;;;3.78;;
25780;SDS011;13626;48.128;11.628;2023-05-07T11:58:44;8.25;;;7.10;;
25780;SDS011;13626;48.128;11.628;2023-05-07T12:01:12;5.63;;;4.07;;
25780;SDS011;13626;48.128;11.628;2023-05-07T12:03:40;4.38;;;2.95;;
25780;SDS011;13626;48.128;11.628;2023-05-07T12:06:14;5.75;;;3.70;;
25780;SDS011;13626;48.128;11.628;2023-05-07T12:08:42;5.60;;;3.13;;
25780;SDS011;13626;48.128;11.628;2023-05-07T12:11:14;3.85;;;3.42;;
25780;SDS011;13626;48.128;11.628;2023-05-07T12:13:43;3.55;;;2.85;;
25780;SDS011;13626;48.128;11.628;2023-05-07T12:16:10;4.72;;;3.38;;
25780;SDS011;13626;48.128;11.628;2023-05-07T12:18:38;5.78;;;3.60;;
25780;SDS011;13626;48.128;11.628;2023-05-07T12:21:05;2.90;;;2.60;;
25780;SDS011;13626;48.128;11.628;2023-05-07T12:23:34;3.42;;;3.03;;
25780;SDS011;13626;48.128;11.628;2023-05-07T12:26:02;2.97;;;2.67;;
25780;SDS011;13626;48.128;11.628;2023-05-07T12:28:36;3.30;;;3.00;;
25780;SDS011;13626;48.128;11.628;2023-05-07T12:31:04;3.40;;;3.10;;
25780;SDS011;13626;48.128;11.628;2023-05-07T12:33:31;3.15;;;2.85;;
25780;SDS011;13626;48.128;11.628;2023-05-07T12:36:02;4.57;;;2.67;;
25780;SDS011;13626;48.128;11.628;2023-05-07T12:38:32;3.92;;;2.95;;
25780;SDS011;13626;48.128;11.628;2023-05-07T12:41:01;4.65;;;3.15;;
25780;SDS011;13626;48.128;11.628;2023-05-07T12:43:28;2.60;;;2.40;;
25780;SDS011;13626;48.128;11.628;2023-05-07T12:45:57;3.55;;;2.80;;
25780;SDS011;13626;48.128;11.628;2023-05-07T12:48:24;3.60;;;2.35;;
25780;SDS011;13626;48.128;11.628;2023-05-07T12:50:53;2.50;;;2.10;;
25780;SDS011;13626;48.128;11.628;2023-05-07T12:53:21;2.13;;;1.98;;
25780;SDS011;13626;48.128;11.628;2023-05-07T12:55:50;3.80;;;2.38;;
25780;SDS011;13626;48.128;11.628;2023-05-07T12:58:18;2.70;;;2.40;;
25780;SDS011;13626;48.128;11.628;2023-05-07T13:00:47;3.67;;;2.20;;
25780;SDS011;13626;48.128;11.628;2023-05-07T13:03:21;2.15;;;1.90;;
25780;SDS011;13626;48.128;11.628;2023-05-07T13:05:50;2.35;;;2.15;;
25780;SDS011;13626;48.128;11.628;2023-05-07T13:10:57;2.08;;;1.88;;
25780;SDS011;13626;48.128;11.628;2023-05-07T13:13:24;4.60;;;1.95;;
25780;SDS011;13626;48.128;11.628;2023-05-07T13:15:51;2.03;;;1.67;;
25780;SDS011;13626;48.128;11.628;2023-05-07T13:18:18;1.85;;;1.70;;
25780;SDS011;13626;48.128;11.628;2023-05-07T13:20:46;2.55;;;1.98;;
25780;SDS011;13626;48.128;11.628;2023-05-07T13:23:13;4.35;;;2.38;;
25780;SDS011;13626;48.128;11.628;2023-05-07T13:25:40;2.17;;;1.98;;
25780;SDS011;13626;48.128;11.628;2023-05-07T13:28:07;2.78;;;1.70;;
25780;SDS011;13626;48.128;11.628;2023-05-07T13:30:36;2.58;;;1.92;;
25780;SDS011;13626;48.128;11.628;2023-05-07T13:33:03;3.58;;;1.98;;
25780;SDS011;13626;48.128;11.628;2023-05-07T13:35:31;2.80;;;1.98;;
25780;SDS011;13626;48.128;11.628;2023-05-07T13:37:58;2.30;;;1.85;;
25780;SDS011;13626;48.128;11.628;2023-05-07T13:40:25;3.88;;;2.00;;
25780;SDS011;13626;48.128;11.628;2023-05-07T13:42:53;1.90;;;1.80;;
25780;SDS011;13626;48.128;11.628;2023-05-07T13:45:20;2.60;;;2.10;;
25780;SDS011;13626;48.128;11.628;2023-05-07T13:47:47;2.72;;;1.80;;
25780;SDS011;13626;48.128;11.628;2023-05-07T13:50:15;1.73;;;1.63;;
25780;SDS011;13626;48.128;11.628;2023-05-07T13:52:43;3.28;;;2.45;;
25780;SDS011;13626;48.128;11.628;2023-05-07T13:55:20;3.63;;;2.08;;
25780;SDS011;13626;48.128;11.628;2023-05-07T13:57:47;3.53;;;2.33;;
25780;SDS011;13626;48.128;11.628;2023-05-07T14:00:14;2.25;;;2.05;;
25780;SDS011;13626;48.128;11.628;2023-05-07T14:02:42;2.40;;;2.20;;
25780;SDS011;13626;48.128;11.628;2023-05-07T14:05:10;4.22;;;2.15;;
25780;SDS011;13626;48.128;11.628;2023-05-07T14:07:37;2.47;;;2.20;;
25780;SDS011;13626;48.128;11.628;2023-05-07T14:10:04;2.38;;;2.17;;
25780;SDS011;13626;48.128;11.628;2023-05-07T14:12:32;2.45;;;2.25;;
25780;SDS011;13626;48.128;11.628;2023-05-07T14:14:59;2.45;;;2.25;;
25780;SDS011;13626;48.128;11.628;2023-05-07T14:17:26;3.60;;;2.17;;
25780;SDS011;13626;48.128;11.628;2023-05-07T14:19:53;3.90;;;2.60;;
25780;SDS011;13626;48.128;11.628;2023-05-07T14:22:21;2.25;;;2.05;;
25780;SDS011;13626;48.128;11.628;2023-05-07T14:24:49;3.03;;;2.33;;
25780;SDS011;13626;48.128;11.628;2023-05-07T14:27:36;2.47;;;2.28;;
25780;SDS011;13626;48.128;11.628;2023-05-07T14:30:04;2.83;;;2.47;;
25780;SDS011;13626;48.128;11.628;2023-05-07T14:32:32;4.15;;;2.83;;
25780;SDS011;13626;48.128;11.628;2023-05-07T14:34:59;3.67;;;2.67;;
25780;SDS011;13626;48.128;11.628;2023-05-07T14:37:26;3.50;;;2.97;;
25780;SDS011;13626;48.128;11.628;2023-05-07T14:39:54;3.17;;;2.50;;
25780;SDS011;13626;48.128;11.628;2023-05-07T14:42:21;5.03;;;2.78;;
25780;SDS011;13626;48.128;11.628;2023-05-07T14:44:48;2.60;;;2.40;;
25780;SDS011;13626;48.128;11.628;2023-05-07T14:47:16;2.95;;;2.75;;
25780;SDS011;13626;48.128;11.628;2023-05-07T14:49:45;3.20;;;2.58;;
25780;SDS011;13626;48.128;11.628;2023-05-07T14:52:12;5.43;;;2.92;;
25780;SDS011;13626;48.128;11.628;2023-05-07T14:54:39;3.63;;;3.20;;
25780;SDS011;13626;48.128;11.628;2023-05-07T14:57:08;5.63;;;2.90;;